createdAt,value
2019-04-04T00:02:04.519Z,5.80
2019-04-04T00:04:33.404Z,6.67
2019-04-04T00:07:02.289Z,6.13
2019-04-04T00:09:33.104Z,6.37
2019-04-04T00:12:01.764Z,6.80
2019-04-04T00:14:34.641Z,6.50
2019-04-04T00:17:03.555Z,6.83
2019-04-04T00:19:32.589Z,6.37
2019-04-04T00:22:02.939Z,6.57
2019-04-04T00:24:32.055Z,7.13
2019-04-04T00:27:01.103Z,6.30
2019-04-04T00:29:29.996Z,6.60
2019-04-04T00:31:58.888Z,6.80
2019-04-04T00:34:28.594Z,7.07
2019-04-04T00:36:57.689Z,6.67
2019-04-04T00:39:26.555Z,7.03
2019-04-04T00:41:55.455Z,6.73
2019-04-04T00:44:24.294Z,6.70
2019-04-04T00:46:53.209Z,6.83
2019-04-04T00:49:22.079Z,7.33
2019-04-04T00:51:50.955Z,7.10
2019-04-04T00:54:19.912Z,7.77
2019-04-04T00:56:48.829Z,7.10
2019-04-04T00:59:18.223Z,6.50
2019-04-04T01:01:47.139Z,6.87
2019-04-04T01:04:16.074Z,6.80
2019-04-04T01:06:44.900Z,6.83
2019-04-04T01:09:13.892Z,6.73
2019-04-04T01:11:42.857Z,7.07
2019-04-04T01:14:11.763Z,7.07
2019-04-04T01:16:40.636Z,7.30
2019-04-04T01:19:10.001Z,7.60
2019-04-04T01:21:40.129Z,7.67
2019-04-04T01:24:09.035Z,7.03
2019-04-04T01:26:37.964Z,7.30
2019-04-04T01:29:10.195Z,7.60
2019-04-04T01:31:37.463Z,7.37
2019-04-04T01:34:06.305Z,7.93
2019-04-04T01:36:35.183Z,7.37
2019-04-04T01:39:05.982Z,7.43
2019-04-04T01:41:36.250Z,6.60
2019-04-04T01:44:05.643Z,7.63
2019-04-04T01:46:36.658Z,7.63
2019-04-04T01:49:05.505Z,6.83
2019-04-04T01:51:34.392Z,6.97
2019-04-04T01:54:03.334Z,7.30
2019-04-04T01:56:32.291Z,7.30
2019-04-04T01:59:01.175Z,7.60
2019-04-04T02:01:30.049Z,7.23
2019-04-04T02:03:58.920Z,7.60
2019-04-04T02:06:28.694Z,7.20
2019-04-04T02:08:58.140Z,6.93
2019-04-04T02:11:26.983Z,7.20
2019-04-04T02:13:55.856Z,7.00
2019-04-04T02:16:24.744Z,7.03
2019-04-04T02:18:54.339Z,6.70
2019-04-04T02:21:23.269Z,7.10
2019-04-04T02:23:52.172Z,6.60
2019-04-04T02:26:21.172Z,6.70
2019-04-04T02:28:50.084Z,6.80
2019-04-04T02:31:21.007Z,6.73
2019-04-04T02:33:49.975Z,6.00
2019-04-04T02:36:18.888Z,6.00
2019-04-04T02:39:02.609Z,6.47
2019-04-04T02:41:31.509Z,7.33
2019-04-04T02:44:00.759Z,6.97
2019-04-04T02:46:30.004Z,6.37
2019-04-04T02:48:58.896Z,6.50
2019-04-04T02:51:27.792Z,6.17
2019-04-04T02:53:56.716Z,6.70
2019-04-04T02:56:25.557Z,6.80
2019-04-04T02:58:54.449Z,6.57
2019-04-04T03:01:23.307Z,6.37
2019-04-04T03:03:52.206Z,6.30
2019-04-04T03:06:23.846Z,6.27
2019-04-04T03:08:51.673Z,6.43
2019-04-04T03:11:21.989Z,6.47
2019-04-04T03:13:51.424Z,6.03
2019-04-04T03:16:21.491Z,6.53
2019-04-04T03:18:55.654Z,5.53
2019-04-04T03:21:24.511Z,6.73
2019-04-04T03:23:53.414Z,7.23
2019-04-04T03:26:22.308Z,7.10
2019-04-04T03:28:51.159Z,6.57
2019-04-04T03:31:20.168Z,5.73
2019-04-04T03:33:49.039Z,6.20
2019-04-04T03:36:17.927Z,6.17
2019-04-04T03:38:47.396Z,6.43
2019-04-04T03:41:16.583Z,6.93
2019-04-04T03:43:48.089Z,6.20
2019-04-04T03:46:15.941Z,6.07
2019-04-04T03:48:44.899Z,7.20
2019-04-04T03:51:13.828Z,6.93
2019-04-04T03:53:46.374Z,7.03
2019-04-04T03:56:14.793Z,6.33
2019-04-04T03:58:43.736Z,7.00
2019-04-04T04:01:13.390Z,5.97
2019-04-04T04:03:42.369Z,7.03
2019-04-04T04:06:11.314Z,6.87
2019-04-04T04:08:40.223Z,6.60
2019-04-04T04:11:09.130Z,7.13
2019-04-04T04:13:38.083Z,6.97
2019-04-04T04:16:06.927Z,6.77
2019-04-04T04:18:35.757Z,6.53
2019-04-04T04:21:09.815Z,6.37
2019-04-04T04:23:35.218Z,6.57
2019-04-04T04:26:08.065Z,7.77
2019-04-04T04:28:34.564Z,6.80
2019-04-04T04:31:03.463Z,6.33
2019-04-04T04:33:32.390Z,6.70
2019-04-04T04:36:01.327Z,6.40
2019-04-04T04:38:30.223Z,6.63
2019-04-04T04:40:59.115Z,6.60
2019-04-04T04:43:32.399Z,5.90
2019-04-04T04:45:58.507Z,6.80
2019-04-04T04:48:30.723Z,7.20
2019-04-04T04:50:57.940Z,6.50
2019-04-04T04:53:26.960Z,7.00
2019-04-04T04:55:59.591Z,6.83
2019-04-04T04:58:26.460Z,7.27
2019-04-04T05:00:55.306Z,6.80
2019-04-04T05:03:24.831Z,7.03
2019-04-04T05:05:53.916Z,6.67
2019-04-04T05:08:22.779Z,7.03
2019-04-04T05:10:51.652Z,6.67
2019-04-04T05:13:20.551Z,7.10
2019-04-04T05:15:49.459Z,6.93
2019-04-04T05:18:18.373Z,6.87
2019-04-04T05:20:47.255Z,6.27
2019-04-04T05:23:16.312Z,6.90
2019-04-04T05:25:53.797Z,7.33
2019-04-04T05:28:16.009Z,7.23
2019-04-04T05:30:45.118Z,6.97
2019-04-04T05:33:15.461Z,6.70
2019-04-04T05:35:44.313Z,7.43
2019-04-04T05:38:13.184Z,7.43
2019-04-04T05:40:42.120Z,6.80
2019-04-04T05:43:10.985Z,6.67
2019-04-04T05:45:39.939Z,6.87
2019-04-04T05:48:08.751Z,6.87
2019-04-04T05:50:37.679Z,6.53
2019-04-04T05:53:06.669Z,7.13
2019-04-04T05:55:35.539Z,7.37
2019-04-04T05:58:04.455Z,7.03
2019-04-04T06:00:33.353Z,7.20
2019-04-04T06:03:02.292Z,7.27
2019-04-04T06:05:31.876Z,7.03
2019-04-04T06:08:01.075Z,6.77
2019-04-04T06:10:30.100Z,6.90
2019-04-04T06:12:58.917Z,7.87
2019-04-04T06:15:27.859Z,6.60
2019-04-04T06:17:56.760Z,6.63
2019-04-04T06:20:25.703Z,7.40
2019-04-04T06:22:54.552Z,7.47
2019-04-04T06:25:23.453Z,7.30
2019-04-04T06:27:52.380Z,7.03
2019-04-04T06:30:21.298Z,6.17
2019-04-04T06:32:50.195Z,8.73
2019-04-04T06:35:19.159Z,8.13
2019-04-04T06:37:51.019Z,7.50
2019-04-04T06:40:18.807Z,7.30
2019-04-04T06:42:47.668Z,6.77
2019-04-04T06:45:16.827Z,7.30
2019-04-04T06:47:45.809Z,7.10
2019-04-04T06:50:14.879Z,7.47
2019-04-04T06:52:43.807Z,7.60
2019-04-04T06:55:12.759Z,7.83
2019-04-04T06:57:41.639Z,8.37
2019-04-04T07:00:11.042Z,7.27
2019-04-04T07:02:39.884Z,8.00
2019-04-04T07:05:10.667Z,8.20
2019-04-04T07:07:42.960Z,8.80
2019-04-04T07:10:12.600Z,8.47
2019-04-04T07:12:41.677Z,7.93
2019-04-04T07:15:12.508Z,7.67
2019-04-04T07:17:41.460Z,8.33
2019-04-04T07:20:10.446Z,8.03
2019-04-04T07:22:39.341Z,8.10
2019-04-04T07:25:08.626Z,7.70
2019-04-04T07:27:37.544Z,7.53
2019-04-04T07:30:08.514Z,6.70
2019-04-04T07:32:40.854Z,7.53
2019-04-04T07:35:08.130Z,8.10
2019-04-04T07:37:37.031Z,7.67
2019-04-04T07:40:07.776Z,8.00
2019-04-04T07:42:36.660Z,7.93
2019-04-04T07:45:08.556Z,8.17
2019-04-04T07:47:37.446Z,8.40
2019-04-04T07:50:06.467Z,7.77
2019-04-04T07:52:35.415Z,8.20
2019-04-04T07:55:05.138Z,8.07
2019-04-04T07:57:33.988Z,9.10
2019-04-04T08:00:02.884Z,8.23
2019-04-04T08:02:31.775Z,8.60
2019-04-04T08:05:00.755Z,8.90
2019-04-04T08:07:29.563Z,8.20
2019-04-04T08:09:58.468Z,8.70
2019-04-04T08:12:27.433Z,7.70
2019-04-04T08:14:56.334Z,8.53
2019-04-04T08:17:25.204Z,7.30
2019-04-04T08:19:59.526Z,7.20
2019-04-04T08:22:24.680Z,7.17
2019-04-04T08:24:53.600Z,6.77
2019-04-04T08:27:22.499Z,7.13
2019-04-04T08:29:51.386Z,7.17
2019-04-04T08:32:20.344Z,6.80
2019-04-04T08:34:49.193Z,7.23
2019-04-04T08:37:18.135Z,6.80
2019-04-04T08:39:46.977Z,6.60
2019-04-04T08:42:15.932Z,7.57
2019-04-04T08:44:44.812Z,6.60
2019-04-04T08:47:13.762Z,6.90
2019-04-04T08:49:42.625Z,6.80
2019-04-04T08:52:16.963Z,6.47
2019-04-04T08:54:42.051Z,6.60
2019-04-04T08:57:10.989Z,7.47
2019-04-04T08:59:39.940Z,7.30
2019-04-04T09:02:08.947Z,7.27
2019-04-04T09:04:38.120Z,6.57
2019-04-04T09:07:06.968Z,7.47
2019-04-04T09:09:35.960Z,6.57
2019-04-04T09:12:05.088Z,7.13
2019-04-04T09:14:33.970Z,7.50
2019-04-04T09:17:03.002Z,7.87
2019-04-04T09:19:31.919Z,7.03
2019-04-04T09:22:00.865Z,6.77
2019-04-04T09:24:29.764Z,6.37
2019-04-04T09:26:58.782Z,5.90
2019-04-04T09:29:27.740Z,6.63
2019-04-04T09:31:56.608Z,6.87
2019-04-04T09:34:25.508Z,7.23
2019-04-04T09:36:54.931Z,7.33
2019-04-04T09:39:23.913Z,6.47
2019-04-04T09:41:52.824Z,6.80
2019-04-04T09:44:21.669Z,6.90
2019-04-04T09:46:50.619Z,7.10
2019-04-04T09:49:19.510Z,6.30
2019-04-04T09:51:48.379Z,6.50
2019-04-04T09:54:19.348Z,7.03
2019-04-04T09:56:47.775Z,6.77
2019-04-04T09:59:16.706Z,6.70
2019-04-04T10:01:45.584Z,6.60
2019-04-04T10:04:14.496Z,7.07
2019-04-04T10:06:43.640Z,6.40
2019-04-04T10:09:15.794Z,6.27
2019-04-04T10:11:43.521Z,6.47
2019-04-04T10:14:12.406Z,6.57
2019-04-04T10:16:41.368Z,6.50
2019-04-04T10:19:10.197Z,6.53
2019-04-04T10:21:39.127Z,5.83
2019-04-04T10:24:08.055Z,6.23
2019-04-04T10:26:36.975Z,6.37
2019-04-04T10:29:06.049Z,6.17
2019-04-04T10:31:34.921Z,6.50
2019-04-04T10:34:03.847Z,6.20
2019-04-04T10:36:32.759Z,6.10
2019-04-04T10:39:01.660Z,5.77
2019-04-04T10:41:30.543Z,6.07
2019-04-04T10:43:59.450Z,5.53
2019-04-04T10:46:28.387Z,6.07
2019-04-04T10:48:57.264Z,5.33
2019-04-04T10:51:26.239Z,5.77
2019-04-04T10:53:55.168Z,5.77
2019-04-04T10:56:24.088Z,5.70
2019-04-04T10:58:52.940Z,5.23
2019-04-04T11:01:21.834Z,5.93
2019-04-04T11:03:50.719Z,5.80
2019-04-04T11:06:19.623Z,6.53
2019-04-04T11:08:48.527Z,6.40
2019-04-04T11:11:17.455Z,5.93
2019-04-04T11:13:46.399Z,6.10
2019-04-04T11:16:15.311Z,5.40
2019-04-04T11:18:44.176Z,6.27
2019-04-04T11:21:13.142Z,6.33
2019-04-04T11:23:42.058Z,6.80
2019-04-04T11:26:10.999Z,6.23
2019-04-04T11:28:39.892Z,6.40
2019-04-04T11:31:08.745Z,6.00
2019-04-04T11:33:37.699Z,6.50
2019-04-04T11:36:06.575Z,6.50
2019-04-04T11:38:35.447Z,6.70
2019-04-04T11:41:04.507Z,6.07
2019-04-04T11:43:33.423Z,7.03
2019-04-04T11:46:02.364Z,6.37
2019-04-04T11:48:31.279Z,6.10
2019-04-04T11:51:00.175Z,5.97
2019-04-04T11:53:29.144Z,6.63
2019-04-04T11:55:58.074Z,6.57
2019-04-04T11:58:27.047Z,6.03
2019-04-04T12:01:00.416Z,6.07
2019-04-04T12:03:29.326Z,6.03
2019-04-04T12:05:58.312Z,6.00
2019-04-04T12:08:27.247Z,5.93
2019-04-04T12:10:56.090Z,5.90
2019-04-04T12:13:25.012Z,5.60
2019-04-04T12:15:53.919Z,6.07
2019-04-04T12:18:22.831Z,5.83
2019-04-04T12:20:51.675Z,5.83
2019-04-04T12:23:20.662Z,5.33
2019-04-04T12:25:49.600Z,5.80
2019-04-04T12:28:18.461Z,5.90
2019-04-04T12:30:47.425Z,5.67
2019-04-04T12:33:16.263Z,5.40
2019-04-04T12:35:45.269Z,4.93
2019-04-04T12:38:14.188Z,5.37
2019-04-04T12:40:43.021Z,5.60
2019-04-04T12:43:12.043Z,5.03
2019-04-04T12:45:41.021Z,5.43
2019-04-04T12:48:09.956Z,5.13
2019-04-04T12:50:38.791Z,5.53
2019-04-04T12:53:07.668Z,5.43
2019-04-04T12:55:36.627Z,5.10
2019-04-04T12:58:05.559Z,5.80
2019-04-04T13:00:34.546Z,6.07
2019-04-04T13:03:03.395Z,6.00
2019-04-04T13:05:32.377Z,5.57
2019-04-04T13:08:01.310Z,5.60
2019-04-04T13:10:33.325Z,5.60
2019-04-04T13:13:00.766Z,5.37
2019-04-04T13:15:29.699Z,5.73
2019-04-04T13:17:58.591Z,5.20
2019-04-04T13:20:27.501Z,5.20
2019-04-04T13:22:56.421Z,5.47
2019-04-04T13:25:25.414Z,5.90
2019-04-04T13:27:54.399Z,4.90
2019-04-04T13:30:23.331Z,5.00
2019-04-04T13:32:52.291Z,4.90
2019-04-04T13:35:21.145Z,4.90
2019-04-04T13:37:50.059Z,4.30
2019-04-04T13:40:19.019Z,5.63
2019-04-04T13:42:47.930Z,5.03
2019-04-04T13:45:16.883Z,5.13
2019-04-04T13:47:45.815Z,5.03
2019-04-04T13:50:14.980Z,5.23
2019-04-04T13:52:43.873Z,4.93
2019-04-04T13:55:12.760Z,4.93
2019-04-04T13:57:41.674Z,4.73
2019-04-04T14:00:11.397Z,4.93
2019-04-04T14:02:40.319Z,4.77
2019-04-04T14:05:12.690Z,5.07
2019-04-04T14:07:43.303Z,5.40
2019-04-04T14:10:12.150Z,5.23
2019-04-04T14:12:41.032Z,5.23
2019-04-04T14:15:11.000Z,4.90
2019-04-04T14:17:39.904Z,5.30
2019-04-04T14:20:10.398Z,5.20
2019-04-04T14:22:39.371Z,5.33
2019-04-04T14:25:09.391Z,5.30
2019-04-04T14:27:38.302Z,5.40
2019-04-04T14:30:09.309Z,4.70
2019-04-04T14:32:38.201Z,5.23
2019-04-04T14:35:09.016Z,5.60
2019-04-04T14:37:37.962Z,5.40
2019-04-04T14:40:07.901Z,5.63
2019-04-04T14:42:36.815Z,5.37
2019-04-04T14:45:08.609Z,4.87
2019-04-04T14:47:37.575Z,5.17
2019-04-04T14:50:07.819Z,5.77
2019-04-04T14:52:39.165Z,5.23
2019-04-04T14:55:07.846Z,5.63
2019-04-04T14:57:36.763Z,5.40
2019-04-04T15:00:10.821Z,5.60
2019-04-04T15:02:39.708Z,5.90
2019-04-04T15:05:08.593Z,5.73
2019-04-04T15:07:37.682Z,6.30
2019-04-04T15:10:06.943Z,5.73
2019-04-04T15:12:36.144Z,5.63
2019-04-04T15:15:06.597Z,5.07
2019-04-04T15:17:35.444Z,5.97
2019-04-04T15:20:06.249Z,5.50
2019-04-04T15:22:35.121Z,5.67
2019-04-04T15:25:04.151Z,5.63
2019-04-04T15:27:32.958Z,5.67
2019-04-04T15:30:01.851Z,5.97
2019-04-04T15:32:30.755Z,6.53
2019-04-04T15:34:59.629Z,5.43
2019-04-04T15:37:28.508Z,5.93
2019-04-04T15:39:57.503Z,5.00
2019-04-04T15:42:26.604Z,5.30
2019-04-04T15:44:55.651Z,5.03
2019-04-04T15:47:24.856Z,5.77
2019-04-04T15:49:53.715Z,5.47
2019-04-04T15:52:22.637Z,5.27
2019-04-04T15:54:51.505Z,5.47
2019-04-04T15:57:20.406Z,5.43
2019-04-04T15:59:49.328Z,5.50
2019-04-04T16:02:18.327Z,5.37
2019-04-04T16:04:47.212Z,5.13
2019-04-04T16:07:16.117Z,5.00
2019-04-04T16:09:44.996Z,5.00
2019-04-04T16:12:14.124Z,4.23
2019-04-04T16:14:43.143Z,5.00
2019-04-04T16:17:12.142Z,4.40
2019-04-04T16:19:41.148Z,4.50
2019-04-04T16:22:10.140Z,4.90
2019-04-04T16:24:39.297Z,4.50
2019-04-04T16:27:08.287Z,4.70
2019-04-04T16:29:43.861Z,4.20
2019-04-04T16:32:10.969Z,4.60
2019-04-04T16:34:39.901Z,4.00
2019-04-04T16:37:08.861Z,4.77
2019-04-04T16:39:37.758Z,4.27
2019-04-04T16:42:06.783Z,4.43
2019-04-04T16:44:35.668Z,4.80
2019-04-04T16:47:04.790Z,5.10
2019-04-04T16:49:33.827Z,4.53
2019-04-04T16:52:02.730Z,4.80
2019-04-04T16:54:31.761Z,4.20
2019-04-04T16:57:00.731Z,4.77
2019-04-04T16:59:29.603Z,4.03
2019-04-04T17:01:58.490Z,4.07
2019-04-04T17:04:27.415Z,4.83
2019-04-04T17:06:56.481Z,4.73
2019-04-04T17:09:25.315Z,4.53
2019-04-04T17:11:54.279Z,4.40
2019-04-04T17:14:23.375Z,4.27
2019-04-04T17:16:52.245Z,4.40
2019-04-04T17:19:21.253Z,4.83
2019-04-04T17:21:50.336Z,4.80
2019-04-04T17:24:19.282Z,4.97
2019-04-04T17:26:48.168Z,4.40
2019-04-04T17:29:17.050Z,4.87
2019-04-04T17:31:46.142Z,4.67
2019-04-04T17:34:15.770Z,4.93
2019-04-04T17:36:45.497Z,4.00
2019-04-04T17:39:14.659Z,4.37
2019-04-04T17:41:43.629Z,4.53
2019-04-04T17:44:12.627Z,4.90
2019-04-04T17:46:41.603Z,4.83
2019-04-04T17:49:10.503Z,4.10
2019-04-04T17:51:39.863Z,3.93
2019-04-04T17:54:08.798Z,3.97
2019-04-04T17:56:37.861Z,3.67
2019-04-04T17:59:07.023Z,3.93
2019-04-04T18:01:35.896Z,3.60
2019-04-04T18:04:04.947Z,3.60
2019-04-04T18:06:34.616Z,3.87
2019-04-04T18:09:04.188Z,3.87
2019-04-04T18:11:33.280Z,4.30
2019-04-04T18:14:02.236Z,3.77
2019-04-04T18:16:32.632Z,3.90
2019-04-04T18:19:01.591Z,3.70
2019-04-04T18:21:30.630Z,3.90
2019-04-04T18:23:59.475Z,3.50
2019-04-04T18:26:28.617Z,3.43
2019-04-04T18:28:57.560Z,3.83
2019-04-04T18:31:26.502Z,3.33
2019-04-04T18:33:55.507Z,3.63
2019-04-04T18:36:24.551Z,3.47
2019-04-04T18:38:53.567Z,3.87
2019-04-04T18:41:22.683Z,3.33
2019-04-04T18:43:51.588Z,3.00
2019-04-04T18:46:20.623Z,3.70
2019-04-04T18:48:51.927Z,3.40
2019-04-04T18:51:21.048Z,3.30
2019-04-04T18:53:50.051Z,3.30
2019-04-04T18:56:19.041Z,3.50
2019-04-04T18:58:47.902Z,3.33
2019-04-04T19:01:17.043Z,4.03
2019-04-04T19:03:46.212Z,3.93
2019-04-04T19:06:15.363Z,3.27
2019-04-04T19:08:44.404Z,3.03
2019-04-04T19:11:13.459Z,3.23
2019-04-04T19:13:44.586Z,3.43
2019-04-04T19:16:13.328Z,3.50
2019-04-04T19:18:42.387Z,3.87
2019-04-04T19:21:11.520Z,3.70
2019-04-04T19:23:49.211Z,3.50
2019-04-04T19:26:11.451Z,3.67
2019-04-04T19:28:40.494Z,3.87
2019-04-04T19:31:10.198Z,3.57
2019-04-04T19:33:39.082Z,4.00
2019-04-04T19:36:08.079Z,3.77
2019-04-04T19:38:36.988Z,4.33
2019-04-04T19:41:06.761Z,3.80
2019-04-04T19:43:35.748Z,3.43
2019-04-04T19:46:04.897Z,4.00
2019-04-04T19:48:33.802Z,4.37
2019-04-04T19:51:02.756Z,3.90
2019-04-04T19:53:31.667Z,3.87
2019-04-04T19:56:00.652Z,3.47
2019-04-04T19:58:29.659Z,4.37
2019-04-04T20:00:58.778Z,3.67
2019-04-04T20:03:27.900Z,3.93
2019-04-04T20:05:57.015Z,3.80
2019-04-04T20:08:26.000Z,3.80
2019-04-04T20:10:54.915Z,3.67
2019-04-04T20:13:30.734Z,4.17
2019-04-04T20:15:54.519Z,4.23
2019-04-04T20:18:23.519Z,4.17
2019-04-04T20:20:52.566Z,4.37
2019-04-04T20:23:21.503Z,4.27
2019-04-04T20:25:50.545Z,4.40
2019-04-04T20:28:19.735Z,4.40
2019-04-04T20:30:48.607Z,4.50
2019-04-04T20:33:17.625Z,4.23
2019-04-04T20:35:46.903Z,4.00
2019-04-04T20:38:16.143Z,4.57
2019-04-04T20:40:45.021Z,4.63
2019-04-04T20:43:14.081Z,4.57
2019-04-04T20:45:42.959Z,4.70
2019-04-04T20:48:11.919Z,4.47
2019-04-04T20:50:40.910Z,4.93
2019-04-04T20:53:09.880Z,4.87
2019-04-04T20:55:38.823Z,5.00
2019-04-04T20:58:07.716Z,4.57
2019-04-04T21:00:36.599Z,5.03
2019-04-04T21:03:05.619Z,4.90
2019-04-04T21:05:34.599Z,4.97
2019-04-04T21:08:03.447Z,4.77
2019-04-04T21:10:32.402Z,4.90
2019-04-04T21:13:01.213Z,4.83
2019-04-04T21:15:30.288Z,5.30
2019-04-04T21:17:59.171Z,4.97
2019-04-04T21:20:27.987Z,4.67
2019-04-04T21:22:56.903Z,4.73
2019-04-04T21:25:25.748Z,4.77
2019-04-04T21:27:54.663Z,4.73
2019-04-04T21:30:23.540Z,5.67
2019-04-04T21:32:52.424Z,5.20
2019-04-04T21:35:21.353Z,6.13
2019-04-04T21:37:50.221Z,5.73
2019-04-04T21:40:19.156Z,5.83
2019-04-04T21:42:48.060Z,5.20
2019-04-04T21:45:16.908Z,5.70
2019-04-04T21:47:45.868Z,5.83
2019-04-04T21:50:14.930Z,5.97
2019-04-04T21:52:43.836Z,5.77
2019-04-04T21:55:12.874Z,5.40
2019-04-04T21:57:41.847Z,5.90
2019-04-04T22:00:12.475Z,6.10
2019-04-04T22:02:41.444Z,5.37
2019-04-04T22:05:10.727Z,5.70
2019-04-04T22:07:39.564Z,6.83
2019-04-04T22:10:09.719Z,6.63
2019-04-04T22:12:38.579Z,6.27
2019-04-04T22:15:08.493Z,6.93
2019-04-04T22:17:37.419Z,6.83
2019-04-04T22:20:07.739Z,5.70
2019-04-04T22:22:36.649Z,6.53
2019-04-04T22:25:08.748Z,7.10
2019-04-04T22:27:37.687Z,7.60
2019-04-04T22:30:07.800Z,7.00
2019-04-04T22:32:36.648Z,6.90
2019-04-04T22:35:08.726Z,7.27
2019-04-04T22:37:37.588Z,6.77
2019-04-04T22:40:07.976Z,6.80
2019-04-04T22:42:36.817Z,7.53
2019-04-04T22:45:07.436Z,6.93
2019-04-04T22:47:36.365Z,7.17
2019-04-04T22:50:06.961Z,7.33
2019-04-04T22:52:35.930Z,8.23
2019-04-04T22:55:05.029Z,7.53
2019-04-04T22:57:33.907Z,7.67
2019-04-04T23:00:02.794Z,7.63
2019-04-04T23:02:31.648Z,7.87
2019-04-04T23:05:00.564Z,7.67
2019-04-04T23:07:29.459Z,8.50
2019-04-04T23:09:58.624Z,8.00
2019-04-04T23:12:28.073Z,7.97
2019-04-04T23:14:57.020Z,7.37
2019-04-04T23:17:25.928Z,8.07
2019-04-04T23:19:54.800Z,7.57
2019-04-04T23:22:23.745Z,8.20
2019-04-04T23:24:52.576Z,6.90
2019-04-04T23:27:21.520Z,8.40
2019-04-04T23:29:50.501Z,8.20
2019-04-04T23:32:19.362Z,8.00
2019-04-04T23:34:48.263Z,8.17
2019-04-04T23:37:17.149Z,8.23
2019-04-04T23:39:46.079Z,8.37
2019-04-04T23:42:14.927Z,7.90
2019-04-04T23:44:43.797Z,7.80
2019-04-04T23:47:12.753Z,8.27
2019-04-04T23:49:41.687Z,8.47
2019-04-04T23:52:10.696Z,7.20
2019-04-04T23:54:39.580Z,8.17
2019-04-04T23:57:08.443Z,8.03
2019-04-04T23:59:37.371Z,7.67
